Terminal Aerodrome Forecast
Issued by NWS Sioux Falls, SD

Home | Current Version | Previous Version | Text Only | Print | Product List | Glossary On
Versions: 1 2 3 4 5 6 7 8 9 10 11 12 13 14 15 16
651
FTUS43 KFSD 110651 AAA
TAFFSD
TAF AMD
KFSD 110651Z 1107/1206 12013KT P6SM OVC008
     FM110900 08009KT P6SM -SN OVC015
     FM111300 VRB05KT P6SM OVC010
     FM111700 32010KT P6SM OVC010
     FM112300 31011KT P6SM BKN035
     FM120400 30005KT P6SM FEW080=

USA.gov is the U.S. government's official web portal to all federal, state and local government web resources and services.